12:14
Airports
Links
Donate
Help keep this website running!
PayPal
Bitcoin
METAR
EDDM 121150Z 24013KT 9999 -SN FEW022 BKN040 03/M01 Q1010 NOSIG
Current Weather Conditions at EDDM
VFR 11:50:00 12-12-17
Altimeter:29.82 hg
Temp:3.0°c 37°f
Dew point:-1.0°c 30°f
Wind:13 knots, 15 mph, 7 m/s, from 240°
Visibility:6.21 statute miles
4000(BKN) Broken
2200(FEW) A few
No significant weather changes expected within 2 hours.
Past METAR reports
VFR 11:20:00 12-12-17
Altimeter:29.82 hg
Temp:3.0°c 37°f
Dew point:-2.0°c 28°f
Wind:10 knots, 11.5 mph, 5 m/s, from 240°
Visibility:6.21 statute miles
4000(BKN) Broken
3000(FEW) A few
No significant weather changes expected within 2 hours.
EDDM 121120Z 24010KT 9999 -SN FEW030 BKN040 03/M02 Q1010 NOSIG
VFR 10:50:00 12-12-17
Altimeter:29.82 hg
Temp:3.0°c 37°f
Dew point:-2.0°c 28°f
Wind:8 knots, 9.2 mph, 4 m/s, from 260°
Visibility:6.21 statute miles
4000(BKN) Broken
3000(FEW) A few
No significant weather changes expected within 2 hours.
EDDM 121050Z 26008KT 9999 -SN FEW030 BKN040 03/M02 Q1010 NOSIG
VFR 10:20:00 12-12-17
Altimeter:29.79 hg
Temp:3.0°c 37°f
Dew point:-2.0°c 28°f
Wind:9 knots, 10.4 mph, 5 m/s, from 250°
Visibility:6.21 statute miles
4000(BKN) Broken
3500(FEW) A few
No significant weather changes expected within 2 hours.
EDDM 121020Z 25009KT 9999 -SN FEW035 BKN040 03/M02 Q1009 NOSIG
VFR 09:50:00 12-12-17
Altimeter:29.79 hg
Temp:3.0°c 37°f
Dew point:-3.0°c 27°f
Wind:8 knots, 9.2 mph, 4 m/s, from 270°
Visibility:6.21 statute miles
3900(BKN) Broken
3000(FEW) A few
No significant weather changes expected within 2 hours.
EDDM 120950Z 27008KT 240V300 9999 FEW030 BKN039 03/M03 Q1009 NOSIG
VFR 09:20:00 12-12-17
Altimeter:29.76 hg
Temp:3.0°c 37°f
Dew point:-3.0°c 27°f
Wind:10 knots, 11.5 mph, 5 m/s, from 270°
Visibility:6.21 statute miles
3700(BKN) Broken
3100(FEW) A few
No significant weather changes expected within 2 hours.
EDDM 120920Z 27010KT 250V310 9999 FEW031 BKN037 03/M03 Q1008 NOSIG
VFR 08:50:00 12-12-17
Altimeter:29.73 hg
Temp:3.0°c 37°f
Dew point:-2.0°c 28°f
Wind:13 knots, 15 mph, 7 m/s, from 270°
Visibility:6.21 statute miles
4000(BKN) Broken
3300(FEW) A few
No significant weather changes expected within 2 hours.
EDDM 120850Z 27013KT 240V300 9999 FEW033 BKN040 03/M02 Q1007 NOSIG
TAF
TAF EDDM 121100Z 1212/1318 24007KT 9999 BKN030 PROB30 TEMPO 1212/1218 4000 -SHSN BKN014TCU BECMG 1310/1312 16005KT BECMG 1316/1318 24015G25KT
Forecast at EDDM
12:00 12-12-17 to 10:00 13-12-17
Wind:7 Knots from 240°
Visibility:6.21 statute miles
3000BKN Broken
TEMPO 12:00 12-12-17 to 18:00 12-12-17
30% -SHSN
Visibility:2.49 statute miles
1400BKN Broken
BECMG 10:00 13-12-17 to 16:00 13-12-17
Wind:5 Knots from 160°
Visibility:6.21 statute miles
3000BKN Broken
BECMG 16:00 13-12-17 to 18:00 13-12-17
Wind:15 Knots from 240°
Visibility:6.21 statute miles
3000BKN Broken